sensor_id;sensor_type;location;lat;lon;timestamp;P1;durP1;ratioP1;P2;durP2;ratioP2
69783;SDS011;57054;51.978;4.498;2023-06-26T00:02:23;4.88;;;3.65;;
69783;SDS011;57054;51.978;4.498;2023-06-26T00:04:49;3.97;;;3.58;;
69783;SDS011;57054;51.978;4.498;2023-06-26T00:07:18;6.60;;;4.22;;
69783;SDS011;57054;51.978;4.498;2023-06-26T00:09:43;4.20;;;3.90;;
69783;SDS011;57054;51.978;4.498;2023-06-26T00:12:09;6.20;;;4.50;;
69783;SDS011;57054;51.978;4.498;2023-06-26T00:14:34;4.10;;;3.80;;
69783;SDS011;57054;51.978;4.498;2023-06-26T00:16:59;4.85;;;3.83;;
69783;SDS011;57054;51.978;4.498;2023-06-26T00:19:25;3.63;;;3.40;;
69783;SDS011;57054;51.978;4.498;2023-06-26T00:21:50;3.55;;;3.22;;
69783;SDS011;57054;51.978;4.498;2023-06-26T00:24:17;3.80;;;3.50;;
69783;SDS011;57054;51.978;4.498;2023-06-26T00:26:43;5.38;;;4.25;;
69783;SDS011;57054;51.978;4.498;2023-06-26T00:29:11;3.90;;;3.60;;
69783;SDS011;57054;51.978;4.498;2023-06-26T00:31:36;4.65;;;3.35;;
69783;SDS011;57054;51.978;4.498;2023-06-26T00:34:03;4.97;;;3.45;;
69783;SDS011;57054;51.978;4.498;2023-06-26T00:36:28;4.43;;;3.30;;
69783;SDS011;57054;51.978;4.498;2023-06-26T00:38:54;3.83;;;3.33;;
69783;SDS011;57054;51.978;4.498;2023-06-26T00:41:19;4.00;;;3.53;;
69783;SDS011;57054;51.978;4.498;2023-06-26T00:43:45;3.42;;;3.05;;
69783;SDS011;57054;51.978;4.498;2023-06-26T00:46:12;3.53;;;3.22;;
69783;SDS011;57054;51.978;4.498;2023-06-26T00:48:38;4.13;;;3.00;;
69783;SDS011;57054;51.978;4.498;2023-06-26T00:51:06;2.70;;;2.50;;
69783;SDS011;57054;51.978;4.498;2023-06-26T00:53:32;5.38;;;2.78;;
69783;SDS011;57054;51.978;4.498;2023-06-26T00:55:58;2.92;;;2.72;;
69783;SDS011;57054;51.978;4.498;2023-06-26T00:58:24;3.13;;;2.70;;
69783;SDS011;57054;51.978;4.498;2023-06-26T01:00:53;5.53;;;3.10;;
69783;SDS011;57054;51.978;4.498;2023-06-26T01:03:22;3.95;;;3.17;;
69783;SDS011;57054;51.978;4.498;2023-06-26T01:05:49;3.42;;;3.00;;
69783;SDS011;57054;51.978;4.498;2023-06-26T01:08:16;5.03;;;3.10;;
69783;SDS011;57054;51.978;4.498;2023-06-26T01:10:43;4.95;;;2.65;;
69783;SDS011;57054;51.978;4.498;2023-06-26T01:13:09;6.45;;;3.17;;
69783;SDS011;57054;51.978;4.498;2023-06-26T01:15:34;5.30;;;3.15;;
69783;SDS011;57054;51.978;4.498;2023-06-26T01:18:00;7.25;;;3.40;;
69783;SDS011;57054;51.978;4.498;2023-06-26T01:20:29;6.80;;;3.45;;
69783;SDS011;57054;51.978;4.498;2023-06-26T01:25:41;3.78;;;3.22;;
69783;SDS011;57054;51.978;4.498;2023-06-26T01:28:19;8.98;;;3.90;;
69783;SDS011;57054;51.978;4.498;2023-06-26T01:30:45;4.93;;;3.15;;
69783;SDS011;57054;51.978;4.498;2023-06-26T01:33:12;7.47;;;3.58;;
69783;SDS011;57054;51.978;4.498;2023-06-26T01:35:39;4.80;;;3.20;;
69783;SDS011;57054;51.978;4.498;2023-06-26T01:38:15;3.67;;;2.90;;
69783;SDS011;57054;51.978;4.498;2023-06-26T01:40:42;4.10;;;3.03;;
69783;SDS011;57054;51.978;4.498;2023-06-26T01:45:41;5.53;;;3.60;;
69783;SDS011;57054;51.978;4.498;2023-06-26T01:48:07;4.70;;;3.17;;
69783;SDS011;57054;51.978;4.498;2023-06-26T01:50:36;8.52;;;3.58;;
69783;SDS011;57054;51.978;4.498;2023-06-26T01:53:06;8.23;;;3.33;;
69783;SDS011;57054;51.978;4.498;2023-06-26T01:55:40;5.35;;;3.28;;
69783;SDS011;57054;51.978;4.498;2023-06-26T01:58:06;5.72;;;3.33;;
69783;SDS011;57054;51.978;4.498;2023-06-26T02:00:33;7.60;;;3.83;;
69783;SDS011;57054;51.978;4.498;2023-06-26T02:02:59;6.85;;;3.38;;
69783;SDS011;57054;51.978;4.498;2023-06-26T02:05:25;7.15;;;3.50;;
69783;SDS011;57054;51.978;4.498;2023-06-26T02:07:50;10.25;;;3.78;;
69783;SDS011;57054;51.978;4.498;2023-06-26T02:10:16;5.53;;;3.67;;
69783;SDS011;57054;51.978;4.498;2023-06-26T02:12:41;6.75;;;3.60;;
69783;SDS011;57054;51.978;4.498;2023-06-26T02:15:07;5.63;;;3.50;;
69783;SDS011;57054;51.978;4.498;2023-06-26T02:17:33;5.32;;;3.55;;
69783;SDS011;57054;51.978;4.498;2023-06-26T02:19:58;12.75;;;3.92;;
69783;SDS011;57054;51.978;4.498;2023-06-26T02:22:24;5.70;;;2.95;;
69783;SDS011;57054;51.978;4.498;2023-06-26T02:24:49;5.95;;;3.35;;
69783;SDS011;57054;51.978;4.498;2023-06-26T02:27:14;7.00;;;3.60;;
69783;SDS011;57054;51.978;4.498;2023-06-26T02:29:40;9.60;;;3.88;;
69783;SDS011;57054;51.978;4.498;2023-06-26T02:32:06;6.38;;;3.33;;
69783;SDS011;57054;51.978;4.498;2023-06-26T02:34:32;8.27;;;3.53;;
69783;SDS011;57054;51.978;4.498;2023-06-26T02:36:58;4.32;;;2.92;;
69783;SDS011;57054;51.978;4.498;2023-06-26T02:39:25;4.75;;;3.17;;
69783;SDS011;57054;51.978;4.498;2023-06-26T02:41:51;5.15;;;3.40;;
69783;SDS011;57054;51.978;4.498;2023-06-26T02:44:16;5.32;;;2.97;;
69783;SDS011;57054;51.978;4.498;2023-06-26T02:46:42;6.53;;;3.20;;
69783;SDS011;57054;51.978;4.498;2023-06-26T02:49:07;5.38;;;3.15;;
69783;SDS011;57054;51.978;4.498;2023-06-26T02:51:33;8.27;;;3.20;;
69783;SDS011;57054;51.978;4.498;2023-06-26T02:53:59;6.90;;;3.05;;
69783;SDS011;57054;51.978;4.498;2023-06-26T02:56:24;5.35;;;3.40;;
69783;SDS011;57054;51.978;4.498;2023-06-26T02:58:53;5.13;;;3.40;;
69783;SDS011;57054;51.978;4.498;2023-06-26T03:01:21;6.97;;;3.35;;
69783;SDS011;57054;51.978;4.498;2023-06-26T03:03:47;4.97;;;3.10;;
69783;SDS011;57054;51.978;4.498;2023-06-26T03:06:13;5.82;;;3.10;;
69783;SDS011;57054;51.978;4.498;2023-06-26T03:08:39;8.63;;;2.95;;
69783;SDS011;57054;51.978;4.498;2023-06-26T03:11:08;3.88;;;3.05;;
69783;SDS011;57054;51.978;4.498;2023-06-26T03:13:34;7.05;;;3.60;;
69783;SDS011;57054;51.978;4.498;2023-06-26T03:16:00;7.57;;;3.35;;
69783;SDS011;57054;51.978;4.498;2023-06-26T03:18:28;5.72;;;3.00;;
69783;SDS011;57054;51.978;4.498;2023-06-26T03:20:55;5.85;;;3.25;;
69783;SDS011;57054;51.978;4.498;2023-06-26T03:23:22;6.30;;;3.03;;
69783;SDS011;57054;51.978;4.498;2023-06-26T03:25:48;7.68;;;3.33;;
69783;SDS011;57054;51.978;4.498;2023-06-26T03:28:13;7.65;;;2.88;;
69783;SDS011;57054;51.978;4.498;2023-06-26T03:30:39;7.88;;;3.40;;
69783;SDS011;57054;51.978;4.498;2023-06-26T03:33:04;5.55;;;3.20;;
69783;SDS011;57054;51.978;4.498;2023-06-26T03:35:29;5.05;;;2.70;;
69783;SDS011;57054;51.978;4.498;2023-06-26T03:37:55;7.95;;;3.22;;
69783;SDS011;57054;51.978;4.498;2023-06-26T03:40:20;4.93;;;2.72;;
69783;SDS011;57054;51.978;4.498;2023-06-26T03:42:46;7.25;;;3.17;;
69783;SDS011;57054;51.978;4.498;2023-06-26T03:45:11;3.85;;;3.05;;
69783;SDS011;57054;51.978;4.498;2023-06-26T03:47:37;8.70;;;2.85;;
69783;SDS011;57054;51.978;4.498;2023-06-26T03:50:02;7.55;;;2.92;;
69783;SDS011;57054;51.978;4.498;2023-06-26T03:52:27;5.50;;;3.28;;
69783;SDS011;57054;51.978;4.498;2023-06-26T03:54:55;9.18;;;3.58;;
69783;SDS011;57054;51.978;4.498;2023-06-26T03:57:21;3.75;;;2.65;;
69783;SDS011;57054;51.978;4.498;2023-06-26T03:59:46;3.83;;;2.63;;
69783;SDS011;57054;51.978;4.498;2023-06-26T04:02:12;4.28;;;2.63;;
69783;SDS011;57054;51.978;4.498;2023-06-26T04:04:37;4.95;;;2.70;;
69783;SDS011;57054;51.978;4.498;2023-06-26T04:07:03;4.72;;;2.78;;
69783;SDS011;57054;51.978;4.498;2023-06-26T04:09:28;6.90;;;3.33;;
69783;SDS011;57054;51.978;4.498;2023-06-26T04:11:53;6.50;;;3.05;;
69783;SDS011;57054;51.978;4.498;2023-06-26T04:14:19;5.97;;;3.40;;
69783;SDS011;57054;51.978;4.498;2023-06-26T04:16:44;8.20;;;3.17;;
69783;SDS011;57054;51.978;4.498;2023-06-26T04:19:10;5.90;;;2.67;;
69783;SDS011;57054;51.978;4.498;2023-06-26T04:21:35;6.22;;;3.17;;
69783;SDS011;57054;51.978;4.498;2023-06-26T04:24:01;7.53;;;3.13;;
69783;SDS011;57054;51.978;4.498;2023-06-26T04:26:26;7.72;;;3.35;;
69783;SDS011;57054;51.978;4.498;2023-06-26T04:28:53;8.10;;;3.60;;
69783;SDS011;57054;51.978;4.498;2023-06-26T04:31:18;6.50;;;3.22;;
69783;SDS011;57054;51.978;4.498;2023-06-26T04:33:44;6.88;;;3.47;;
69783;SDS011;57054;51.978;4.498;2023-06-26T04:36:09;6.07;;;3.58;;
69783;SDS011;57054;51.978;4.498;2023-06-26T04:38:36;3.08;;;2.45;;
69783;SDS011;57054;51.978;4.498;2023-06-26T04:41:01;6.03;;;3.00;;
69783;SDS011;57054;51.978;4.498;2023-06-26T04:43:27;3.33;;;2.60;;
69783;SDS011;57054;51.978;4.498;2023-06-26T04:45:53;3.20;;;2.40;;
69783;SDS011;57054;51.978;4.498;2023-06-26T04:48:18;4.78;;;2.95;;
69783;SDS011;57054;51.978;4.498;2023-06-26T04:50:43;5.25;;;2.50;;
69783;SDS011;57054;51.978;4.498;2023-06-26T04:53:17;5.97;;;2.22;;
69783;SDS011;57054;51.978;4.498;2023-06-26T04:55:43;2.92;;;2.70;;
69783;SDS011;57054;51.978;4.498;2023-06-26T04:58:08;3.75;;;2.60;;
69783;SDS011;57054;51.978;4.498;2023-06-26T05:00:33;3.60;;;2.50;;
69783;SDS011;57054;51.978;4.498;2023-06-26T05:03:00;3.80;;;2.08;;
69783;SDS011;57054;51.978;4.498;2023-06-26T05:05:27;5.78;;;2.80;;
69783;SDS011;57054;51.978;4.498;2023-06-26T05:07:56;6.20;;;2.30;;
69783;SDS011;57054;51.978;4.498;2023-06-26T05:12:47;5.72;;;2.88;;
69783;SDS011;57054;51.978;4.498;2023-06-26T05:15:12;5.00;;;2.60;;
69783;SDS011;57054;51.978;4.498;2023-06-26T05:17:37;5.68;;;2.65;;
69783;SDS011;57054;51.978;4.498;2023-06-26T05:20:03;6.65;;;3.00;;
69783;SDS011;57054;51.978;4.498;2023-06-26T05:22:30;6.72;;;2.67;;
69783;SDS011;57054;51.978;4.498;2023-06-26T05:24:58;4.80;;;2.43;;
69783;SDS011;57054;51.978;4.498;2023-06-26T05:27:25;6.30;;;2.75;;
69783;SDS011;57054;51.978;4.498;2023-06-26T05:29:51;9.20;;;2.80;;
69783;SDS011;57054;51.978;4.498;2023-06-26T05:32:17;4.72;;;2.65;;
69783;SDS011;57054;51.978;4.498;2023-06-26T05:34:44;11.05;;;2.05;;
69783;SDS011;57054;51.978;4.498;2023-06-26T05:37:12;6.32;;;2.35;;
69783;SDS011;57054;51.978;4.498;2023-06-26T05:39:43;4.60;;;2.08;;
69783;SDS011;57054;51.978;4.498;2023-06-26T05:42:08;2.70;;;2.00;;
69783;SDS011;57054;51.978;4.498;2023-06-26T05:44:34;4.40;;;1.40;;
69783;SDS011;57054;51.978;4.498;2023-06-26T05:47:00;2.13;;;1.50;;
69783;SDS011;57054;51.978;4.498;2023-06-26T05:49:25;5.25;;;1.50;;
69783;SDS011;57054;51.978;4.498;2023-06-26T05:51:51;3.45;;;1.20;;
69783;SDS011;57054;51.978;4.498;2023-06-26T05:54:16;5.65;;;1.45;;
69783;SDS011;57054;51.978;4.498;2023-06-26T05:56:42;2.92;;;1.60;;
69783;SDS011;57054;51.978;4.498;2023-06-26T05:59:08;4.88;;;1.58;;
69783;SDS011;57054;51.978;4.498;2023-06-26T06:01:34;4.20;;;1.40;;
69783;SDS011;57054;51.978;4.498;2023-06-26T06:04:00;5.90;;;1.08;;
69783;SDS011;57054;51.978;4.498;2023-06-26T06:06:26;4.85;;;1.08;;
69783;SDS011;57054;51.978;4.498;2023-06-26T06:08:51;6.53;;;1.77;;
69783;SDS011;57054;51.978;4.498;2023-06-26T06:11:17;5.72;;;1.50;;
69783;SDS011;57054;51.978;4.498;2023-06-26T06:13:42;6.00;;;1.50;;
69783;SDS011;57054;51.978;4.498;2023-06-26T06:16:07;8.73;;;1.58;;
69783;SDS011;57054;51.978;4.498;2023-06-26T06:18:33;8.10;;;1.75;;
69783;SDS011;57054;51.978;4.498;2023-06-26T06:20:58;2.17;;;1.20;;
69783;SDS011;57054;51.978;4.498;2023-06-26T06:23:24;2.05;;;0.85;;
69783;SDS011;57054;51.978;4.498;2023-06-26T06:25:49;17.38;;;1.85;;
69783;SDS011;57054;51.978;4.498;2023-06-26T06:28:14;14.77;;;2.38;;
69783;SDS011;57054;51.978;4.498;2023-06-26T06:30:41;10.85;;;2.33;;
69783;SDS011;57054;51.978;4.498;2023-06-26T06:33:07;4.43;;;1.15;;
69783;SDS011;57054;51.978;4.498;2023-06-26T06:35:32;4.32;;;1.35;;
69783;SDS011;57054;51.978;4.498;2023-06-26T06:37:57;6.20;;;1.20;;
69783;SDS011;57054;51.978;4.498;2023-06-26T06:40:23;7.40;;;1.25;;
69783;SDS011;57054;51.978;4.498;2023-06-26T06:42:49;4.32;;;1.40;;
69783;SDS011;57054;51.978;4.498;2023-06-26T06:45:15;5.20;;;1.20;;
69783;SDS011;57054;51.978;4.498;2023-06-26T06:47:40;5.60;;;1.05;;
69783;SDS011;57054;51.978;4.498;2023-06-26T06:50:06;5.30;;;1.38;;
69783;SDS011;57054;51.978;4.498;2023-06-26T06:52:37;2.22;;;1.23;;
69783;SDS011;57054;51.978;4.498;2023-06-26T06:55:03;2.30;;;1.30;;
69783;SDS011;57054;51.978;4.498;2023-06-26T06:57:31;2.00;;;1.07;;
69783;SDS011;57054;51.978;4.498;2023-06-26T07:00:01;2.80;;;1.42;;
69783;SDS011;57054;51.978;4.498;2023-06-26T07:02:29;2.42;;;1.48;;
69783;SDS011;57054;51.978;4.498;2023-06-26T07:04:55;2.50;;;1.15;;
69783;SDS011;57054;51.978;4.498;2023-06-26T07:07:20;3.47;;;1.08;;
69783;SDS011;57054;51.978;4.498;2023-06-26T07:09:45;3.85;;;1.23;;
69783;SDS011;57054;51.978;4.498;2023-06-26T07:12:11;5.15;;;1.17;;
69783;SDS011;57054;51.978;4.498;2023-06-26T07:14:36;5.20;;;1.50;;
69783;SDS011;57054;51.978;4.498;2023-06-26T07:17:01;4.68;;;1.70;;
69783;SDS011;57054;51.978;4.498;2023-06-26T07:19:27;7.53;;;1.70;;
69783;SDS011;57054;51.978;4.498;2023-06-26T07:21:52;1.83;;;1.13;;
69783;SDS011;57054;51.978;4.498;2023-06-26T07:24:18;2.00;;;1.05;;
69783;SDS011;57054;51.978;4.498;2023-06-26T07:26:43;3.00;;;1.35;;
69783;SDS011;57054;51.978;4.498;2023-06-26T07:29:09;1.85;;;0.88;;
69783;SDS011;57054;51.978;4.498;2023-06-26T07:31:34;1.75;;;1.00;;
69783;SDS011;57054;51.978;4.498;2023-06-26T07:34:00;2.30;;;1.00;;
69783;SDS011;57054;51.978;4.498;2023-06-26T07:36:25;4.03;;;1.25;;
69783;SDS011;57054;51.978;4.498;2023-06-26T07:38:50;1.88;;;1.00;;
69783;SDS011;57054;51.978;4.498;2023-06-26T07:41:16;1.27;;;1.10;;
69783;SDS011;57054;51.978;4.498;2023-06-26T07:43:41;4.13;;;1.25;;
69783;SDS011;57054;51.978;4.498;2023-06-26T07:46:06;1.85;;;0.85;;
69783;SDS011;57054;51.978;4.498;2023-06-26T07:48:32;3.03;;;1.10;;
69783;SDS011;57054;51.978;4.498;2023-06-26T07:50:57;2.00;;;0.95;;
69783;SDS011;57054;51.978;4.498;2023-06-26T07:53:23;5.63;;;1.58;;
69783;SDS011;57054;51.978;4.498;2023-06-26T07:55:48;2.75;;;1.10;;
69783;SDS011;57054;51.978;4.498;2023-06-26T07:58:13;6.93;;;1.70;;
69783;SDS011;57054;51.978;4.498;2023-06-26T08:00:39;3.22;;;1.35;;
69783;SDS011;57054;51.978;4.498;2023-06-26T08:03:05;8.15;;;1.40;;
69783;SDS011;57054;51.978;4.498;2023-06-26T08:05:30;3.13;;;1.27;;
69783;SDS011;57054;51.978;4.498;2023-06-26T08:07:56;2.10;;;1.02;;
69783;SDS011;57054;51.978;4.498;2023-06-26T08:10:21;4.03;;;1.20;;
69783;SDS011;57054;51.978;4.498;2023-06-26T08:12:47;4.20;;;1.15;;
69783;SDS011;57054;51.978;4.498;2023-06-26T08:15:13;1.25;;;1.00;;
69783;SDS011;57054;51.978;4.498;2023-06-26T08:17:39;4.40;;;1.30;;
69783;SDS011;57054;51.978;4.498;2023-06-26T08:20:04;2.67;;;1.13;;
69783;SDS011;57054;51.978;4.498;2023-06-26T08:22:32;4.72;;;1.30;;
69783;SDS011;57054;51.978;4.498;2023-06-26T08:24:58;2.25;;;1.33;;
69783;SDS011;57054;51.978;4.498;2023-06-26T08:27:23;7.00;;;1.52;;
69783;SDS011;57054;51.978;4.498;2023-06-26T08:29:49;5.15;;;1.55;;
69783;SDS011;57054;51.978;4.498;2023-06-26T08:32:15;4.28;;;1.35;;
69783;SDS011;57054;51.978;4.498;2023-06-26T08:34:40;3.10;;;1.20;;
69783;SDS011;57054;51.978;4.498;2023-06-26T08:37:06;3.05;;;1.20;;
69783;SDS011;57054;51.978;4.498;2023-06-26T08:39:34;4.88;;;1.25;;
69783;SDS011;57054;51.978;4.498;2023-06-26T08:41:59;6.47;;;1.70;;
69783;SDS011;57054;51.978;4.498;2023-06-26T08:44:25;3.95;;;1.50;;
69783;SDS011;57054;51.978;4.498;2023-06-26T08:46:50;6.00;;;1.60;;
69783;SDS011;57054;51.978;4.498;2023-06-26T08:49:21;3.03;;;1.05;;
69783;SDS011;57054;51.978;4.498;2023-06-26T08:51:52;4.30;;;1.45;;
69783;SDS011;57054;51.978;4.498;2023-06-26T08:54:22;4.50;;;1.30;;
69783;SDS011;57054;51.978;4.498;2023-06-26T08:56:53;1.67;;;1.10;;
69783;SDS011;57054;51.978;4.498;2023-06-26T08:59:20;8.75;;;1.58;;
69783;SDS011;57054;51.978;4.498;2023-06-26T09:01:46;2.65;;;1.00;;
69783;SDS011;57054;51.978;4.498;2023-06-26T09:04:12;2.67;;;1.25;;
69783;SDS011;57054;51.978;4.498;2023-06-26T09:06:38;2.58;;;1.20;;
69783;SDS011;57054;51.978;4.498;2023-06-26T09:09:04;2.58;;;1.15;;
69783;SDS011;57054;51.978;4.498;2023-06-26T09:11:30;2.05;;;1.20;;
69783;SDS011;57054;51.978;4.498;2023-06-26T09:13:55;2.00;;;0.90;;
69783;SDS011;57054;51.978;4.498;2023-06-26T09:16:24;3.28;;;1.08;;
69783;SDS011;57054;51.978;4.498;2023-06-26T09:18:55;1.75;;;1.00;;
69783;SDS011;57054;51.978;4.498;2023-06-26T09:21:21;1.98;;;1.15;;
69783;SDS011;57054;51.978;4.498;2023-06-26T09:23:49;7.65;;;1.65;;
69783;SDS011;57054;51.978;4.498;2023-06-26T09:26:15;4.72;;;1.70;;
69783;SDS011;57054;51.978;4.498;2023-06-26T09:28:42;3.47;;;1.58;;
69783;SDS011;57054;51.978;4.498;2023-06-26T09:31:08;3.38;;;1.10;;
69783;SDS011;57054;51.978;4.498;2023-06-26T09:33:35;2.47;;;1.15;;
69783;SDS011;57054;51.978;4.498;2023-06-26T09:36:04;3.03;;;1.20;;
69783;SDS011;57054;51.978;4.498;2023-06-26T09:38:35;3.92;;;1.52;;
69783;SDS011;57054;51.978;4.498;2023-06-26T09:41:01;7.05;;;1.75;;
69783;SDS011;57054;51.978;4.498;2023-06-26T09:43:27;5.20;;;1.80;;
69783;SDS011;57054;51.978;4.498;2023-06-26T09:45:53;8.07;;;1.73;;
69783;SDS011;57054;51.978;4.498;2023-06-26T09:48:19;2.95;;;1.50;;
69783;SDS011;57054;51.978;4.498;2023-06-26T09:50:45;3.72;;;1.52;;
69783;SDS011;57054;51.978;4.498;2023-06-26T09:53:11;2.83;;;1.52;;
69783;SDS011;57054;51.978;4.498;2023-06-26T09:55:38;2.33;;;1.30;;
69783;SDS011;57054;51.978;4.498;2023-06-26T09:58:10;5.95;;;2.10;;
69783;SDS011;57054;51.978;4.498;2023-06-26T10:00:39;6.30;;;1.63;;
69783;SDS011;57054;51.978;4.498;2023-06-26T10:03:05;5.35;;;1.42;;
69783;SDS011;57054;51.978;4.498;2023-06-26T10:05:31;7.15;;;1.50;;
69783;SDS011;57054;51.978;4.498;2023-06-26T10:07:56;3.53;;;1.30;;
69783;SDS011;57054;51.978;4.498;2023-06-26T10:10:22;1.23;;;0.98;;
69783;SDS011;57054;51.978;4.498;2023-06-26T10:12:48;8.75;;;1.60;;
69783;SDS011;57054;51.978;4.498;2023-06-26T10:15:19;2.17;;;1.13;;
69783;SDS011;57054;51.978;4.498;2023-06-26T10:17:46;1.25;;;1.10;;
69783;SDS011;57054;51.978;4.498;2023-06-26T10:20:13;2.97;;;1.27;;
69783;SDS011;57054;51.978;4.498;2023-06-26T10:22:41;10.65;;;1.90;;
69783;SDS011;57054;51.978;4.498;2023-06-26T10:25:09;2.97;;;1.20;;
69783;SDS011;57054;51.978;4.498;2023-06-26T10:27:40;3.07;;;1.17;;
69783;SDS011;57054;51.978;4.498;2023-06-26T10:30:12;1.80;;;1.15;;
69783;SDS011;57054;51.978;4.498;2023-06-26T10:32:42;1.45;;;0.88;;
69783;SDS011;57054;51.978;4.498;2023-06-26T10:35:08;2.13;;;0.85;;
69783;SDS011;57054;51.978;4.498;2023-06-26T10:37:42;2.22;;;0.85;;
69783;SDS011;57054;51.978;4.498;2023-06-26T10:40:12;3.13;;;1.08;;
69783;SDS011;57054;51.978;4.498;2023-06-26T10:42:39;3.28;;;0.93;;
69783;SDS011;57054;51.978;4.498;2023-06-26T10:45:23;2.40;;;1.08;;
69783;SDS011;57054;51.978;4.498;2023-06-26T10:47:53;2.70;;;1.10;;
69783;SDS011;57054;51.978;4.498;2023-06-26T10:50:28;0.77;;;0.77;;
69783;SDS011;57054;51.978;4.498;2023-06-26T11:06:23;2.08;;;0.98;;
69783;SDS011;57054;51.978;4.498;2023-06-26T11:08:49;2.90;;;0.90;;
69783;SDS011;57054;51.978;4.498;2023-06-26T11:11:18;2.67;;;1.35;;
69783;SDS011;57054;51.978;4.498;2023-06-26T11:13:44;5.63;;;0.90;;
69783;SDS011;57054;51.978;4.498;2023-06-26T11:16:11;5.68;;;1.10;;
69783;SDS011;57054;51.978;4.498;2023-06-26T11:18:37;3.90;;;1.15;;
69783;SDS011;57054;51.978;4.498;2023-06-26T11:21:06;3.58;;;1.30;;
69783;SDS011;57054;51.978;4.498;2023-06-26T11:23:32;5.47;;;1.33;;
69783;SDS011;57054;51.978;4.498;2023-06-26T11:26:12;6.63;;;1.80;;
69783;SDS011;57054;51.978;4.498;2023-06-26T11:28:49;4.00;;;1.00;;
69783;SDS011;57054;51.978;4.498;2023-06-26T11:31:25;6.22;;;1.45;;
69783;SDS011;57054;51.978;4.498;2023-06-26T11:34:02;2.92;;;1.00;;
69783;SDS011;57054;51.978;4.498;2023-06-26T11:36:29;5.40;;;1.30;;
69783;SDS011;57054;51.978;4.498;2023-06-26T11:38:55;4.45;;;1.10;;
69783;SDS011;57054;51.978;4.498;2023-06-26T11:41:22;5.18;;;1.25;;
69783;SDS011;57054;51.978;4.498;2023-06-26T11:43:48;6.00;;;1.13;;
69783;SDS011;57054;51.978;4.498;2023-06-26T11:46:16;2.28;;;1.17;;
69783;SDS011;57054;51.978;4.498;2023-06-26T11:48:42;2.55;;;0.88;;
69783;SDS011;57054;51.978;4.498;2023-06-26T11:51:08;3.88;;;1.50;;
69783;SDS011;57054;51.978;4.498;2023-06-26T11:53:38;1.90;;;1.00;;
69783;SDS011;57054;51.978;4.498;2023-06-26T11:56:09;5.25;;;1.23;;
69783;SDS011;57054;51.978;4.498;2023-06-26T11:58:35;1.83;;;0.90;;
69783;SDS011;57054;51.978;4.498;2023-06-26T12:01:01;3.85;;;0.90;;
69783;SDS011;57054;51.978;4.498;2023-06-26T12:03:27;10.85;;;1.58;;
69783;SDS011;57054;51.978;4.498;2023-06-26T12:05:54;3.63;;;1.10;;
69783;SDS011;57054;51.978;4.498;2023-06-26T12:08:19;1.52;;;0.90;;
69783;SDS011;57054;51.978;4.498;2023-06-26T12:10:45;3.60;;;1.15;;
69783;SDS011;57054;51.978;4.498;2023-06-26T12:13:10;2.00;;;0.90;;
69783;SDS011;57054;51.978;4.498;2023-06-26T12:15:36;1.35;;;0.70;;
69783;SDS011;57054;51.978;4.498;2023-06-26T12:18:07;3.78;;;0.80;;
69783;SDS011;57054;51.978;4.498;2023-06-26T12:20:39;1.60;;;0.98;;
69783;SDS011;57054;51.978;4.498;2023-06-26T12:23:11;0.70;;;0.65;;
69783;SDS011;57054;51.978;4.498;2023-06-26T12:25:37;1.35;;;0.90;;
69783;SDS011;57054;51.978;4.498;2023-06-26T12:28:03;0.80;;;0.80;;
69783;SDS011;57054;51.978;4.498;2023-06-26T12:30:28;1.38;;;0.75;;
69783;SDS011;57054;51.978;4.498;2023-06-26T12:32:53;1.60;;;0.95;;
69783;SDS011;57054;51.978;4.498;2023-06-26T12:35:19;2.83;;;1.50;;
69783;SDS011;57054;51.978;4.498;2023-06-26T12:37:44;1.92;;;0.90;;
69783;SDS011;57054;51.978;4.498;2023-06-26T12:40:19;1.48;;;0.85;;
69783;SDS011;57054;51.978;4.498;2023-06-26T12:42:48;1.10;;;1.00;;
69783;SDS011;57054;51.978;4.498;2023-06-26T12:45:14;2.97;;;1.02;;
69783;SDS011;57054;51.978;4.498;2023-06-26T12:47:40;2.80;;;1.10;;
69783;SDS011;57054;51.978;4.498;2023-06-26T12:52:34;1.45;;;0.90;;
69783;SDS011;57054;51.978;4.498;2023-06-26T12:54:59;2.55;;;1.08;;
69783;SDS011;57054;51.978;4.498;2023-06-26T12:57:25;0.90;;;0.88;;
69783;SDS011;57054;51.978;4.498;2023-06-26T12:59:51;1.13;;;0.95;;
69783;SDS011;57054;51.978;4.498;2023-06-26T13:02:16;1.13;;;0.70;;
69783;SDS011;57054;51.978;4.498;2023-06-26T13:04:42;0.70;;;0.70;;
69783;SDS011;57054;51.978;4.498;2023-06-26T13:07:09;2.17;;;0.90;;
69783;SDS011;57054;51.978;4.498;2023-06-26T13:09:35;2.45;;;0.77;;
69783;SDS011;57054;51.978;4.498;2023-06-26T13:12:02;3.90;;;1.02;;
69783;SDS011;57054;51.978;4.498;2023-06-26T13:14:31;0.82;;;0.80;;
69783;SDS011;57054;51.978;4.498;2023-06-26T13:16:56;3.22;;;1.20;;
69783;SDS011;57054;51.978;4.498;2023-06-26T13:19:22;0.98;;;0.88;;
69783;SDS011;57054;51.978;4.498;2023-06-26T13:21:47;1.35;;;0.65;;
69783;SDS011;57054;51.978;4.498;2023-06-26T13:24:13;1.25;;;1.15;;
69783;SDS011;57054;51.978;4.498;2023-06-26T13:26:38;4.60;;;1.10;;
69783;SDS011;57054;51.978;4.498;2023-06-26T13:29:04;6.70;;;1.10;;
69783;SDS011;57054;51.978;4.498;2023-06-26T13:31:30;1.42;;;1.10;;
69783;SDS011;57054;51.978;4.498;2023-06-26T13:33:59;2.08;;;0.93;;
69783;SDS011;57054;51.978;4.498;2023-06-26T13:36:25;5.43;;;1.25;;
69783;SDS011;57054;51.978;4.498;2023-06-26T13:38:51;3.45;;;1.17;;
69783;SDS011;57054;51.978;4.498;2023-06-26T13:41:23;3.83;;;0.98;;
69783;SDS011;57054;51.978;4.498;2023-06-26T13:43:49;1.33;;;1.13;;
69783;SDS011;57054;51.978;4.498;2023-06-26T13:46:15;1.20;;;0.90;;
69783;SDS011;57054;51.978;4.498;2023-06-26T13:48:42;3.22;;;1.00;;
69783;SDS011;57054;51.978;4.498;2023-06-26T13:51:07;2.95;;;1.27;;
69783;SDS011;57054;51.978;4.498;2023-06-26T13:53:33;1.83;;;1.08;;
69783;SDS011;57054;51.978;4.498;2023-06-26T13:55:58;2.45;;;1.00;;
69783;SDS011;57054;51.978;4.498;2023-06-26T13:58:23;0.88;;;0.88;;
69783;SDS011;57054;51.978;4.498;2023-06-26T14:00:52;2.03;;;0.77;;
69783;SDS011;57054;51.978;4.498;2023-06-26T14:03:18;1.20;;;0.80;;
69783;SDS011;57054;51.978;4.498;2023-06-26T14:05:43;1.48;;;0.80;;
69783;SDS011;57054;51.978;4.498;2023-06-26T14:08:09;2.15;;;0.80;;
69783;SDS011;57054;51.978;4.498;2023-06-26T14:10:35;1.23;;;0.70;;
69783;SDS011;57054;51.978;4.498;2023-06-26T14:13:01;3.25;;;1.20;;
69783;SDS011;57054;51.978;4.498;2023-06-26T14:15:28;1.40;;;0.90;;
69783;SDS011;57054;51.978;4.498;2023-06-26T14:17:53;1.27;;;0.70;;
69783;SDS011;57054;51.978;4.498;2023-06-26T14:20:20;2.20;;;0.88;;
69783;SDS011;57054;51.978;4.498;2023-06-26T14:22:47;0.90;;;0.88;;
69783;SDS011;57054;51.978;4.498;2023-06-26T14:25:13;1.50;;;0.73;;
69783;SDS011;57054;51.978;4.498;2023-06-26T14:27:39;0.63;;;0.63;;
69783;SDS011;57054;51.978;4.498;2023-06-26T14:30:05;0.63;;;0.63;;
69783;SDS011;57054;51.978;4.498;2023-06-26T14:32:32;1.02;;;0.90;;
69783;SDS011;57054;51.978;4.498;2023-06-26T14:34:58;2.20;;;1.10;;
69783;SDS011;57054;51.978;4.498;2023-06-26T14:37:24;2.40;;;1.10;;
69783;SDS011;57054;51.978;4.498;2023-06-26T14:39:50;2.13;;;1.20;;
69783;SDS011;57054;51.978;4.498;2023-06-26T14:42:16;2.00;;;1.05;;
69783;SDS011;57054;51.978;4.498;2023-06-26T14:44:41;2.33;;;1.15;;
69783;SDS011;57054;51.978;4.498;2023-06-26T14:47:07;1.02;;;0.90;;
69783;SDS011;57054;51.978;4.498;2023-06-26T14:49:32;1.40;;;1.05;;
69783;SDS011;57054;51.978;4.498;2023-06-26T14:51:58;3.58;;;1.00;;
69783;SDS011;57054;51.978;4.498;2023-06-26T14:54:23;1.58;;;1.00;;
69783;SDS011;57054;51.978;4.498;2023-06-26T14:56:49;2.58;;;0.82;;
69783;SDS011;57054;51.978;4.498;2023-06-26T14:59:14;1.83;;;1.20;;
69783;SDS011;57054;51.978;4.498;2023-06-26T15:01:39;0.98;;;0.88;;
69783;SDS011;57054;51.978;4.498;2023-06-26T15:04:05;5.53;;;1.15;;
69783;SDS011;57054;51.978;4.498;2023-06-26T15:06:31;2.58;;;1.20;;
69783;SDS011;57054;51.978;4.498;2023-06-26T15:08:57;2.65;;;1.10;;